Time;durP1;ratioP1;P1;durP2;ratioP2;P2;SDS_P1;SDS_P2;PMS_P1;PMS_P2;Temp;Humidity;BMP_temperature;BMP_pressure;BME280_temperature;BME280_humidity;BME280_pressure;Samples;Min_cycle;Max_cycle;Signal;HPM_P1;HPM_P2
2022/09/24 00:01:49;;;;;;;8.43;7.30;;;;;;;9.87;81.02;99781.19;1685948;82;22360;-68
2022/09/24 00:04:17;;;;;;;8.93;8.00;;;;;;;9.89;81.04;99781.88;1667341;83;21181;-69
2022/09/24 00:06:46;;;;;;;8.55;7.42;;;;;;;9.88;81.07;99782.84;1697480;82;21724;-69
2022/09/24 00:09:17;;;;;;;11.05;8.68;;;;;;;9.85;81.09;99783.12;1680279;83;21842;-69
2022/09/24 00:11:44;;;;;;;10.08;8.50;;;;;;;9.82;81.12;99776.28;1694588;83;20978;-68
2022/09/24 00:14:11;;;;;;;9.30;8.40;;;;;;;9.79;81.21;99775.72;1677938;83;21098;-68
2022/09/24 00:16:38;;;;;;;10.05;9.05;;;;;;;9.77;81.33;99774.55;1696932;82;20996;-68
2022/09/24 00:19:05;;;;;;;10.10;9.10;;;;;;;9.77;81.41;99772.39;1657770;85;21081;-68
2022/09/24 00:21:33;;;;;;;10.10;9.10;;;;;;;9.78;81.49;99766.14;1690369;82;23198;-68
2022/09/24 00:24:07;;;;;;;10.90;9.60;;;;;;;9.81;81.49;99769.34;1704127;82;20992;-68
2022/09/24 00:26:50;;;;;;;11.10;9.13;;;;;;;9.82;81.46;99768.86;1703298;82;21087;-71
2022/09/24 00:29:23;;;;;;;10.85;9.75;;;;;;;9.84;81.46;99775.66;1707717;82;21024;-68
2022/09/24 00:31:50;;;;;;;;;;;;;;;9.84;81.46;99764.28;1685972;83;21007;-68
2022/09/24 00:34:18;;;;;;;9.93;8.93;;;;;;;9.83;81.45;99766.09;1682284;85;21886;-68
2022/09/24 00:36:52;;;;;;;10.88;9.85;;;;;;;9.82;81.51;99762.27;1672876;85;21497;-68
2022/09/24 00:39:18;;;;;;;10.68;9.55;;;;;;;9.81;81.55;99757.96;1677285;83;21056;-68
2022/09/24 00:41:49;;;;;;;11.22;9.80;;;;;;;9.77;81.63;99756.56;1691142;83;21029;-68
2022/09/24 00:44:48;;;;;;;11.78;9.88;;;;;;;9.73;81.66;99756.81;1661375;83;21008;-69
2022/09/24 00:47:36;;;;;;;11.15;10.05;;;;;;;9.72;81.72;99753.82;1667525;84;21968;-68
2022/09/24 00:50:09;;;;;;;10.48;8.83;;;;;;;9.74;81.68;99759.79;1673510;83;21059;-68
2022/09/24 00:52:40;;;;;;;10.20;9.20;;;;;;;9.75;81.68;99756.70;1670532;83;21025;-69
2022/09/24 00:55:08;;;;;;;10.58;9.48;;;;;;;9.76;81.67;99755.73;1708836;83;20961;-69
2022/09/24 01:00:16;;;;;;;11.25;9.23;;;;;;;9.77;81.62;99755.25;1715756;83;21984;-69
2022/09/24 01:02:46;;;;;;;9.85;8.65;;;;;;;9.74;81.72;99746.61;1634564;85;21053;-68
2022/09/24 01:05:13;;;;;;;9.73;8.73;;;;;;;9.76;81.73;99751.78;1661396;84;21068;-69
2022/09/24 01:07:40;;;;;;;9.18;8.23;;;;;;;9.76;81.65;99754.41;1686287;85;20975;-68
2022/09/24 01:10:07;;;;;;;8.65;7.85;;;;;;;9.75;81.68;99755.38;1709818;83;21005;-68
2022/09/24 01:12:45;;;;;;;11.20;8.43;;;;;;;9.77;81.69;99752.61;1707473;82;22817;-68
2022/09/24 01:15:18;;;;;;;8.78;7.40;;;;;;;9.77;81.65;99752.61;1703546;83;21111;-68
2022/09/24 01:18:25;;;;;;;9.20;8.08;;;;;;;9.79;81.65;99751.98;1711426;83;21005;-68
2022/09/24 01:21:24;;;;;;;12.58;8.35;;;;;;;9.80;81.61;99754.97;1688665;83;21380;-68
2022/09/24 01:24:06;;;;;;;12.23;7.72;;;;;;;9.79;81.58;99751.98;1648396;85;21110;-69
2022/09/24 01:27:23;;;;;;;9.40;7.58;;;;;;;9.78;81.50;99750.32;1678391;83;21738;-68
2022/09/24 01:30:10;;;;;;;8.75;7.55;;;;;;;9.77;81.52;99745.53;1695152;83;21057;-68
2022/09/24 01:32:50;;;;;;;9.13;7.33;;;;;;;9.77;81.48;99746.84;1676383;83;20984;-68
2022/09/24 01:35:35;;;;;;;9.78;7.08;;;;;;;9.77;81.49;99742.06;1698935;82;21070;-68
2022/09/24 01:38:06;;;;;;;9.50;6.60;;;;;;;9.78;81.46;99741.92;1694539;82;21055;-68
2022/09/24 01:40:33;;;;;;;7.17;6.40;;;;;;;9.77;81.39;99740.26;1703620;82;21949;-68
2022/09/24 01:42:59;;;;;;;6.97;6.17;;;;;;;9.77;81.28;99744.70;1673030;83;20952;-68
2022/09/24 01:45:28;;;;;;;6.60;5.95;;;;;;;9.75;81.24;99746.98;1689252;82;21076;-68
2022/09/24 01:47:54;;;;;;;6.78;5.80;;;;;;;9.74;81.18;99745.28;1671786;84;21038;-72
2022/09/24 01:50:21;;;;;;;7.90;5.67;;;;;;;9.70;81.13;99746.53;1671429;84;20976;-69
2022/09/24 01:52:53;;;;;;;6.00;5.20;;;;;;;9.69;81.18;99743.55;1680333;83;21926;-68
2022/09/24 01:55:23;;;;;;;7.47;6.35;;;;;;;9.70;81.15;99745.21;1668467;84;21000;-69
2022/09/24 01:57:55;;;;;;;7.37;5.80;;;;;;;9.67;81.16;99745.48;1689894;84;21024;-68
2022/09/24 02:00:21;;;;;;;6.97;5.22;;;;;;;9.67;81.14;99739.38;1696459;82;21031;-68
2022/09/24 02:03:03;;;;;;;7.33;5.50;;;;;;;9.66;81.16;99739.86;1702357;82;21063;-69
2022/09/24 02:05:37;;;;;;;8.83;5.85;;;;;;;9.63;81.17;99737.47;1699601;82;21844;-68
2022/09/24 02:08:08;;;;;;;6.22;5.62;;;;;;;9.63;81.18;99740.59;1698029;82;20921;-68
2022/09/24 02:11:02;;;;;;;8.18;6.30;;;;;;;9.63;81.19;99737.47;1687288;83;21030;-68
2022/09/24 02:13:37;;;;;;;7.53;5.90;;;;;;;9.66;81.17;99738.55;1686878;83;21441;-68
2022/09/24 02:16:02;;;;;;;7.08;5.97;;;;;;;9.65;81.17;99734.70;1682879;84;21247;-68
2022/09/24 02:18:32;;;;;;;7.25;6.42;;;;;;;9.66;81.21;99741.66;1684699;84;21918;-68
2022/09/24 02:21:00;;;;;;;10.32;7.25;;;;;;;9.63;81.21;99738.78;1683923;83;21414;-69
2022/09/24 02:23:26;;;;;;;7.62;6.83;;;;;;;9.62;81.22;99746.83;1690652;84;21023;-68
2022/09/24 02:25:57;;;;;;;7.95;7.05;;;;;;;9.63;81.25;99748.02;1687538;84;21096;-69
2022/09/24 02:28:24;;;;;;;8.93;7.47;;;;;;;9.64;81.24;99752.80;1662326;86;21422;-72
2022/09/24 02:30:55;;;;;;;8.45;7.55;;;;;;;9.64;81.26;99749.68;1659689;83;21978;-68
2022/09/24 02:36:07;;;;;;;9.30;8.18;;;;;;;9.70;81.21;99755.76;1688880;84;20956;-69
2022/09/24 02:38:35;;;;;;;9.88;8.70;;;;;;;9.68;81.20;99759.50;1639504;84;21444;-68
2022/09/24 02:41:02;;;;;;;10.65;9.40;;;;;;;9.67;81.22;99757.35;1688225;83;21552;-68
2022/09/24 02:43:29;;;;;;;12.93;9.35;;;;;;;9.68;81.27;99756.38;1690585;84;21761;-68
2022/09/24 02:45:55;;;;;;;11.93;9.63;;;;;;;9.71;81.27;99765.82;1686955;84;21021;-68
2022/09/24 02:48:22;;;;;;;17.67;14.28;;;;;;;9.72;81.25;99763.53;1685794;84;21055;-68
2022/09/24 02:50:49;;;;;;;14.55;11.68;;;;;;;9.73;81.23;99767.84;1669786;83;21593;-68
2022/09/24 02:53:15;;;;;;;13.00;9.95;;;;;;;9.74;81.22;99766.39;1663402;86;21030;-68
2022/09/24 02:55:42;;;;;;;15.65;11.93;;;;;;;9.74;81.24;99764.23;1688747;83;21675;-68
2022/09/24 02:58:08;;;;;;;12.95;10.13;;;;;;;9.73;81.22;99765.20;1697577;83;20992;-67
2022/09/24 03:00:34;;;;;;;11.35;10.15;;;;;;;9.74;81.29;99760.28;1673678;83;21503;-68
2022/09/24 03:03:01;;;;;;;22.70;17.62;;;;;;;9.77;81.26;99765.80;1691605;83;21006;-68
2022/09/24 03:05:27;;;;;;;12.43;9.65;;;;;;;9.79;81.23;99759.41;1690423;83;21012;-68
2022/09/24 03:07:57;;;;;;;13.80;9.10;;;;;;;9.83;81.18;99762.61;1695082;83;21821;-68
2022/09/24 03:10:25;;;;;;;10.43;8.73;;;;;;;9.85;81.14;99762.02;1699095;83;20999;-69
2022/09/24 03:12:51;;;;;;;9.68;8.53;;;;;;;9.86;81.10;99766.33;1701180;83;20970;-70
2022/09/24 03:15:19;;;;;;;9.40;7.97;;;;;;;9.85;81.04;99765.98;1697354;84;21011;-68
2022/09/24 03:17:46;;;;;;;12.20;8.00;;;;;;;9.86;81.04;99768.96;1695624;84;21017;-68
2022/09/24 03:20:13;;;;;;;14.65;8.45;;;;;;;9.84;80.95;99765.11;1697539;83;22536;-69
2022/09/24 03:22:42;;;;;;;11.93;7.80;;;;;;;9.85;80.94;99767.30;1697003;83;20958;-70
2022/09/24 03:25:09;;;;;;;8.93;6.67;;;;;;;9.83;80.89;99762.61;1683506;84;21065;-68
2022/09/24 03:27:37;;;;;;;8.80;7.05;;;;;;;9.83;80.90;99761.30;1695707;83;21077;-69
2022/09/24 03:32:53;;;;;;;7.62;6.70;;;;;;;9.81;80.93;99765.88;1703580;82;21937;-72
2022/09/24 03:35:22;;;;;;;7.33;6.62;;;;;;;9.83;80.95;99763.93;1699733;82;20977;-70
2022/09/24 03:37:49;;;;;;;7.97;6.05;;;;;;;9.85;81.01;99759.38;1710247;82;21019;-70
2022/09/24 03:40:16;;;;;;;7.35;6.12;;;;;;;9.86;80.96;99760.56;1701764;82;21050;-70
2022/09/24 03:42:44;;;;;;;9.18;6.47;;;;;;;9.85;80.91;99763.34;1677223;84;21088;-70
2022/09/24 03:45:11;;;;;;;7.80;6.00;;;;;;;9.84;80.93;99761.64;1694508;83;21912;-68
2022/09/24 03:47:39;;;;;;;10.68;6.40;;;;;;;9.83;81.03;99759.97;1691871;82;21045;-69
2022/09/24 03:50:09;;;;;;;10.82;6.42;;;;;;;9.84;81.02;99762.96;1712082;83;21041;-72
2022/09/24 03:52:39;;;;;;;7.65;6.12;;;;;;;9.87;81.06;99764.03;1701534;82;21045;-70
2022/09/24 03:55:08;;;;;;;7.22;6.37;;;;;;;9.89;81.11;99766.05;1686932;82;21023;-72
2022/09/24 03:57:35;;;;;;;11.35;10.23;;;;;;;9.90;81.06;99765.08;1669704;83;22276;-70
2022/09/24 04:00:03;;;;;;;7.62;6.90;;;;;;;9.88;81.01;99762.58;1683862;83;21097;-70
2022/09/24 04:02:32;;;;;;;8.65;6.97;;;;;;;9.87;81.05;99766.19;1681038;84;21475;-69
2022/09/24 04:05:00;;;;;;;9.48;8.55;;;;;;;9.86;81.05;99765.01;1661169;84;21098;-69
2022/09/24 04:07:27;;;;;;;10.58;7.40;;;;;;;9.85;81.08;99757.58;1680852;83;21497;-69
2022/09/24 04:09:55;;;;;;;8.25;7.45;;;;;;;9.85;81.12;99762.86;1656385;85;22348;-69
2022/09/24 04:12:24;;;;;;;9.63;7.45;;;;;;;9.86;81.08;99762.38;1671518;83;21591;-72
2022/09/24 04:14:51;;;;;;;9.23;7.65;;;;;;;9.84;81.09;99761.64;1668414;84;21050;-69
2022/09/24 04:17:17;;;;;;;10.85;9.75;;;;;;;9.85;81.01;99760.70;1660703;85;21043;-69
2022/09/24 04:19:43;;;;;;;8.03;7.30;;;;;;;9.86;80.98;99755.30;1660615;85;21027;-69
2022/09/24 04:22:10;;;;;;;8.50;7.35;;;;;;;9.85;80.95;99760.22;1670388;84;22214;-70
2022/09/24 04:24:37;;;;;;;12.80;9.85;;;;;;;9.84;80.90;99757.20;1683511;83;21469;-70
2022/09/24 04:27:03;;;;;;;10.30;9.28;;;;;;;9.86;80.89;99753.14;1662658;85;21050;-70
2022/09/24 04:29:30;;;;;;;7.90;6.65;;;;;;;9.87;80.82;99753.48;1665595;85;21015;-68
2022/09/24 04:31:56;;;;;;;8.43;7.58;;;;;;;9.88;80.75;99758.63;1683123;83;21035;-67
2022/09/24 04:34:23;;;;;;;7.60;6.85;;;;;;;9.88;80.58;99765.70;1665126;85;21858;-68
2022/09/24 04:36:50;;;;;;;7.85;6.80;;;;;;;9.87;80.59;99765.36;1663491;85;21017;-69
2022/09/24 04:39:25;;;;;;;10.72;7.00;;;;;;;9.88;80.59;99765.22;1677036;84;20991;-69
2022/09/24 04:41:48;;;;;;;9.23;8.00;;;;;;;9.89;80.53;99768.69;1681069;84;21453;-70
2022/09/24 04:44:14;;;;;;;8.43;7.30;;;;;;;9.90;80.55;99766.40;1676590;84;21066;-68
2022/09/24 04:46:42;;;;;;;6.95;6.25;;;;;;;9.91;80.54;99766.27;1652027;85;21944;-69
2022/09/24 04:49:09;;;;;;;6.75;5.90;;;;;;;9.92;80.59;99771.05;1682146;84;20932;-69
2022/09/24 04:51:37;;;;;;;7.17;6.37;;;;;;;9.92;80.62;99765.78;1660897;85;21410;-69
2022/09/24 04:54:03;;;;;;;7.00;6.35;;;;;;;9.92;80.65;99772.37;1644643;85;21072;-69
2022/09/24 04:56:30;;;;;;;7.33;6.45;;;;;;;9.92;80.67;99772.37;1676982;85;20991;-69
2022/09/24 04:58:57;;;;;;;7.72;6.08;;;;;;;9.91;80.71;99768.91;1687276;85;22434;-68
2022/09/24 05:01:24;;;;;;;6.80;6.10;;;;;;;9.91;80.79;99770.22;1687461;85;21529;-69
2022/09/24 05:03:52;;;;;;;6.65;5.85;;;;;;;9.94;80.90;99774.39;1687455;84;20967;-69
2022/09/24 05:06:18;;;;;;;6.25;5.62;;;;;;;9.98;80.98;99770.53;1696287;83;20992;-69
2022/09/24 05:08:44;;;;;;;5.95;5.45;;;;;;;10.02;81.07;99771.44;1663812;85;20975;-69
2022/09/24 05:11:13;;;;;;;6.08;5.58;;;;;;;10.07;81.09;99771.55;1658726;86;21578;-69
2022/09/24 05:13:40;;;;;;;6.03;5.33;;;;;;;10.07;81.09;99772.37;1670292;85;21423;-68
2022/09/24 05:16:06;;;;;;;7.50;5.47;;;;;;;10.08;81.07;99771.89;1665194;83;21151;-68
2022/09/24 05:18:34;;;;;;;6.17;5.58;;;;;;;10.06;81.01;99773.34;1658428;86;21023;-69
2022/09/24 05:21:01;;;;;;;6.20;5.28;;;;;;;10.07;81.05;99779.46;1658980;86;21134;-68
2022/09/24 05:23:27;;;;;;;7.60;5.30;;;;;;;10.10;81.16;99776.06;1682242;85;21823;-68
2022/09/24 05:28:39;;;;;;;6.08;5.42;;;;;;;10.10;81.10;99781.34;1715019;83;20961;-69
2022/09/24 05:31:07;;;;;;;7.12;6.42;;;;;;;10.07;81.06;99784.25;1714884;83;20988;-69
2022/09/24 05:33:35;;;;;;;7.60;6.72;;;;;;;10.04;80.99;99774.81;1714961;83;20995;-69
2022/09/24 05:36:03;;;;;;;7.87;6.60;;;;;;;10.09;81.05;99781.48;1668848;83;21826;-69
2022/09/24 05:38:31;;;;;;;6.58;5.97;;;;;;;10.11;81.12;99776.41;1639789;87;21355;-68
2022/09/24 05:40:59;;;;;;;8.75;6.53;;;;;;;10.11;81.04;99779.05;1643040;85;20968;-69
2022/09/24 05:43:30;;;;;;;7.72;6.75;;;;;;;10.14;81.09;99785.89;1658907;86;21021;-68
2022/09/24 05:45:57;;;;;;;6.58;5.97;;;;;;;10.17;81.14;99779.01;1689727;83;21048;-69
2022/09/24 05:48:27;;;;;;;7.47;6.78;;;;;;;10.19;81.13;99777.91;1714869;83;21790;-69
2022/09/24 05:50:54;;;;;;;6.22;5.62;;;;;;;10.20;80.89;99778.73;1714892;83;21039;-69
2022/09/24 05:53:22;;;;;;;7.10;6.40;;;;;;;10.21;80.94;99781.72;1715210;83;20996;-69
2022/09/24 05:55:48;;;;;;;7.22;6.53;;;;;;;10.19;80.80;99781.02;1714952;83;21008;-68
2022/09/24 05:58:15;;;;;;;7.40;6.60;;;;;;;10.19;80.76;99779.22;1670665;83;21094;-69
2022/09/24 06:00:41;;;;;;;7.20;6.50;;;;;;;10.20;80.69;99776.93;1658527;86;22958;-69
2022/09/24 06:03:13;;;;;;;7.20;6.50;;;;;;;10.17;80.64;99781.16;1631938;86;21001;-69
2022/09/24 06:05:48;;;;;;;8.40;6.25;;;;;;;10.19;80.65;99786.30;1655037;85;20992;-69
2022/09/24 06:08:17;;;;;;;8.93;6.87;;;;;;;10.17;80.45;99787.77;1666762;84;21007;-69
2022/09/24 06:10:46;;;;;;;7.40;6.70;;;;;;;10.13;80.46;99780.23;1650045;85;21031;-69
2022/09/24 06:13:16;;;;;;;7.50;6.80;;;;;;;10.13;80.54;99781.55;1667616;85;21530;-68
2022/09/24 06:15:44;;;;;;;10.38;7.33;;;;;;;10.15;80.61;99785.75;1646843;86;21019;-68
2022/09/24 06:18:11;;;;;;;7.78;6.97;;;;;;;10.18;80.60;99787.27;1647285;86;20972;-69
2022/09/24 06:20:39;;;;;;;7.60;6.42;;;;;;;10.21;80.59;99787.00;1647738;85;20984;-69
2022/09/24 06:23:06;;;;;;;9.45;6.90;;;;;;;10.26;80.74;99794.08;1663028;85;21072;-69
2022/09/24 06:25:33;;;;;;;7.45;6.75;;;;;;;10.33;80.71;99793.91;1674210;84;21977;-69
2022/09/24 06:28:02;;;;;;;9.75;6.92;;;;;;;10.43;80.98;99789.97;1674218;85;20952;-69
2022/09/24 06:30:37;;;;;;;8.05;7.05;;;;;;;10.50;80.86;99795.03;1674439;85;21418;-69
2022/09/24 06:33:12;;;;;;;7.62;6.78;;;;;;;10.56;80.77;99795.83;1664487;85;21011;-69
2022/09/24 06:35:40;;;;;;;7.67;6.95;;;;;;;10.62;80.78;99803.70;1671215;85;21016;-69
2022/09/24 06:38:10;;;;;;;7.47;6.75;;;;;;;10.69;80.50;99800.36;1674317;85;21945;-69
2022/09/24 06:40:37;;;;;;;7.10;6.40;;;;;;;10.78;80.48;99805.31;1674181;85;21479;-69
2022/09/24 06:43:05;;;;;;;7.70;6.80;;;;;;;10.83;80.04;99806.58;1674283;85;21443;-68
2022/09/24 06:45:33;;;;;;;7.40;6.65;;;;;;;10.86;79.73;99810.26;1674392;85;21047;-69
2022/09/24 06:48:02;;;;;;;8.03;7.10;;;;;;;10.92;79.56;99816.81;1652062;85;20977;-69
2022/09/24 06:50:30;;;;;;;7.67;6.35;;;;;;;10.92;78.99;99814.17;1623971;85;23327;-69
2022/09/24 06:52:57;;;;;;;8.23;7.22;;;;;;;10.92;78.79;99811.53;1620263;87;21450;-69
2022/09/24 06:55:25;;;;;;;10.55;8.00;;;;;;;10.91;78.83;99815.64;1647422;85;21525;-69
2022/09/24 06:58:08;;;;;;;9.05;8.15;;;;;;;10.94;78.78;99816.19;1647571;87;20999;-69
2022/09/24 07:00:37;;;;;;;8.38;7.17;;;;;;;10.99;78.78;99818.40;1649777;85;21070;-69
2022/09/24 07:03:05;;;;;;;9.65;7.92;;;;;;;11.01;78.61;99817.31;1673853;85;21811;-69
2022/09/24 07:05:33;;;;;;;8.78;7.10;;;;;;;11.02;78.42;99817.66;1693327;83;20965;-69
2022/09/24 07:08:00;;;;;;;9.33;6.90;;;;;;;11.01;78.21;99817.31;1662212;83;21457;-69
2022/09/24 07:10:27;;;;;;;7.80;7.00;;;;;;;10.99;78.19;99813.95;1678244;84;21007;-69
2022/09/24 07:12:55;;;;;;;8.15;6.85;;;;;;;10.95;78.14;99820.98;1682998;84;21055;-69
2022/09/24 07:15:22;;;;;;;7.87;6.97;;;;;;;10.93;78.10;99816.33;1677615;83;22248;-69
2022/09/24 07:17:55;;;;;;;8.38;7.15;;;;;;;10.94;78.11;99818.83;1714949;83;20945;-69
2022/09/24 07:20:23;;;;;;;8.67;7.20;;;;;;;10.95;77.88;99824.95;1719099;83;21392;-68
2022/09/24 07:22:50;;;;;;;6.95;6.25;;;;;;;10.96;77.94;99826.61;1680628;83;20989;-69
2022/09/24 07:25:17;;;;;;;6.42;5.83;;;;;;;11.02;78.09;99826.08;1658466;86;21085;-69
2022/09/24 07:27:43;;;;;;;9.65;6.30;;;;;;;11.06;77.79;99823.48;1658392;86;22010;-69
2022/09/24 07:30:11;;;;;;;7.62;5.97;;;;;;;11.12;77.76;99828.23;1649783;85;21052;-69
2022/09/24 07:32:37;;;;;;;7.10;6.40;;;;;;;11.15;77.66;99828.78;1700836;83;20977;-69
2022/09/24 07:35:06;;;;;;;7.08;6.25;;;;;;;11.22;77.66;99830.88;1715286;83;21040;-69
2022/09/24 07:37:32;;;;;;;8.33;6.22;;;;;;;11.29;77.73;99833.29;1714905;83;21050;-69
2022/09/24 07:39:59;;;;;;;6.60;6.00;;;;;;;11.39;77.70;99830.19;1709500;83;21797;-69
2022/09/24 07:42:27;;;;;;;7.15;6.00;;;;;;;11.44;77.40;99830.09;1658241;86;21017;-69
2022/09/24 07:45:00;;;;;;;6.65;6.05;;;;;;;11.52;77.40;99831.20;1676688;83;33246;-69
2022/09/24 07:47:23;;;;;;;8.53;6.15;;;;;;;11.59;77.20;99832.32;1703240;83;21115;-69
2022/09/24 07:49:50;;;;;;;6.97;6.37;;;;;;;11.63;77.01;99830.56;1655133;86;20968;-69
2022/09/24 07:52:17;;;;;;;7.12;6.03;;;;;;;11.70;77.05;99838.28;1655142;86;21977;-69
2022/09/24 07:54:45;;;;;;;6.20;5.70;;;;;;;11.73;76.78;99839.80;1654947;86;21031;-69
2022/09/24 07:57:14;;;;;;;6.40;5.80;;;;;;;11.67;76.47;99836.39;1656778;85;21077;-69
2022/09/24 07:59:43;;;;;;;7.22;6.53;;;;;;;11.60;76.32;99842.76;1641870;85;20989;-69
2022/09/24 08:02:15;;;;;;;6.80;6.12;;;;;;;11.58;76.28;99839.88;1639789;87;20984;-69
2022/09/24 08:04:42;;;;;;;10.95;6.83;;;;;;;11.57;76.29;99844.83;1628375;87;22011;-69
2022/09/24 08:07:10;;;;;;;6.92;6.22;;;;;;;11.59;76.46;99846.87;1639702;87;20962;-68
2022/09/24 08:09:37;;;;;;;8.63;6.50;;;;;;;11.61;76.36;99844.42;1639812;86;21061;-69
2022/09/24 08:12:05;;;;;;;6.30;5.70;;;;;;;11.67;76.44;99850.45;1655833;83;21076;-70
2022/09/24 08:14:32;;;;;;;7.20;6.50;;;;;;;11.73;76.34;99845.09;1660127;85;21003;-70
2022/09/24 08:17:00;;;;;;;7.20;6.50;;;;;;;11.73;75.96;99843.28;1686151;84;22609;-70
2022/09/24 08:19:30;;;;;;;7.15;6.45;;;;;;;11.77;75.85;99849.11;1667067;85;20955;-70
2022/09/24 08:21:57;;;;;;;8.18;6.62;;;;;;;11.81;75.59;99847.06;1685765;83;21009;-71
2022/09/24 08:24:24;;;;;;;8.18;6.47;;;;;;;11.87;75.63;99842.05;1684850;85;21068;-79
2022/09/24 08:26:52;;;;;;;7.72;6.83;;;;;;;12.01;75.67;99849.52;1684789;84;21442;-68
2022/09/24 08:29:19;;;;;;;8.48;6.42;;;;;;;12.15;74.96;99850.02;1685170;85;22467;-69
2022/09/24 08:31:48;;;;;;;6.87;6.25;;;;;;;12.26;74.62;99843.25;1672708;83;21084;-69
2022/09/24 08:34:14;;;;;;;6.65;5.72;;;;;;;12.32;73.85;99844.80;1639888;86;21020;-69
2022/09/24 08:36:41;;;;;;;6.58;5.80;;;;;;;12.30;73.24;99852.06;1639735;86;21076;-72
2022/09/24 08:39:07;;;;;;;8.18;6.12;;;;;;;12.27;73.13;99848.88;1639908;87;21008;-69
2022/09/24 08:42:05;;;;;;;7.45;6.20;;;;;;;12.19;71.86;99855.39;1639974;87;22269;-72
2022/09/24 08:47:47;;;;;;;6.75;6.00;;;;;;;11.98;71.65;99855.59;1709786;83;21025;-69
2022/09/24 08:50:23;;;;;;;9.75;6.65;;;;;;;11.87;71.89;99851.77;1683860;85;20999;-69
2022/09/24 08:53:13;;;;;;;7.70;5.87;;;;;;;11.89;72.42;99855.97;1683982;84;21486;-71
2022/09/24 08:55:47;;;;;;;6.30;5.33;;;;;;;12.00;72.43;99849.67;1683799;84;22348;-70
2022/09/24 08:58:30;;;;;;;;;;;;;;;12.24;73.02;99842.53;1685691;83;21046;-69
2022/09/24 09:01:08;;;;;;;6.10;5.50;;;;;;;12.43;71.90;99851.72;1683889;85;20176;-70
2022/09/24 09:03:48;;;;;;;5.80;5.30;;;;;;;12.51;71.07;99845.20;1684053;85;20987;-71
2022/09/24 09:06:53;;;;;;;6.85;5.53;;;;;;;12.55;70.50;99841.30;1685541;85;21103;-71
2022/09/24 09:09:25;;;;;;;6.17;5.58;;;;;;;12.55;70.17;99842.63;1687867;84;21852;-69
2022/09/24 09:11:59;;;;;;;8.03;5.72;;;;;;;12.53;69.70;99845.05;1700385;83;20957;-71
2022/09/24 09:14:41;;;;;;;6.10;5.03;;;;;;;12.48;69.42;99840.70;1699589;83;20999;-71
2022/09/24 09:17:32;;;;;;;7.47;5.25;;;;;;;12.42;69.46;99846.09;1691106;84;21441;-69
2022/09/24 09:20:01;;;;;;;7.12;5.80;;;;;;;12.41;69.33;99843.59;1716930;83;21000;-69
2022/09/24 09:22:32;;;;;;;7.08;5.35;;;;;;;12.35;69.51;99844.99;1703746;83;21899;-70
2022/09/24 09:25:16;;;;;;;6.45;5.60;;;;;;;12.31;69.69;99845.79;1702792;83;20940;-68
2022/09/24 09:27:43;;;;;;;6.70;5.22;;;;;;;12.33;69.55;99841.66;1701547;84;21042;-68
2022/09/24 09:30:13;;;;;;;6.22;5.12;;;;;;;12.42;70.08;99850.55;1701740;84;21002;-68
2022/09/24 09:33:03;;;;;;;6.78;5.30;;;;;;;12.58;70.30;99850.77;1700333;84;21370;-71
2022/09/24 09:36:10;;;;;;;5.70;5.10;;;;;;;12.81;70.11;99839.25;1724144;82;21939;-68
2022/09/24 09:38:51;;;;;;;4.95;4.45;;;;;;;13.10;69.15;99848.34;1745426;82;21045;-70
2022/09/24 09:41:45;;;;;;;6.12;5.12;;;;;;;13.32;67.89;99842.63;1689149;84;20979;-70
2022/09/24 09:44:24;;;;;;;5.53;4.62;;;;;;;13.49;68.10;99840.93;1703993;83;20972;-71
2022/09/24 09:46:59;;;;;;;5.70;4.87;;;;;;;13.61;67.30;99837.06;1716616;83;20953;-69
2022/09/24 09:49:28;;;;;;;6.70;4.83;;;;;;;13.60;65.93;99831.89;1706082;83;22557;-70
2022/09/24 09:51:56;;;;;;;5.10;4.60;;;;;;;13.52;65.14;99835.83;1686434;85;21404;-69
2022/09/24 09:54:36;;;;;;;4.95;4.45;;;;;;;13.45;64.82;99834.27;1702873;83;20960;-69
2022/09/24 09:57:03;;;;;;;6.95;4.40;;;;;;;13.41;64.66;99832.89;1715393;83;20984;-68
2022/09/24 09:59:29;;;;;;;4.85;4.45;;;;;;;13.31;64.73;99834.30;1716531;83;20948;-68
2022/09/24 10:01:56;;;;;;;5.40;4.22;;;;;;;13.27;65.33;99829.47;1716640;83;22525;-70
2022/09/24 10:04:42;;;;;;;5.42;4.00;;;;;;;13.32;65.71;99827.21;1715396;82;21069;-70
2022/09/24 10:07:15;;;;;;;6.08;3.52;;;;;;;13.38;65.18;99827.41;1697892;83;21044;-69
2022/09/24 10:09:44;;;;;;;4.43;3.37;;;;;;;13.54;65.45;99821.42;1696964;84;21435;-69
2022/09/24 10:12:20;;;;;;;6.10;3.65;;;;;;;13.86;65.17;99821.30;1696760;83;21109;-69
2022/09/24 10:15:01;;;;;;;4.08;3.00;;;;;;;14.08;63.14;99822.58;1708789;83;20976;-69
2022/09/24 10:17:34;;;;;;;6.00;3.17;;;;;;;14.18;62.13;99812.67;1711554;82;20964;-70
2022/09/24 10:20:08;;;;;;;4.62;3.37;;;;;;;14.29;62.05;99819.89;1711759;83;20968;-71
2022/09/24 10:22:35;;;;;;;6.30;3.85;;;;;;;14.42;62.56;99820.77;1697512;82;21007;-70
2022/09/24 10:25:03;;;;;;;5.20;3.22;;;;;;;14.65;61.06;99826.85;1689321;83;20946;-69
2022/09/24 10:27:35;;;;;;;3.55;2.80;;;;;;;14.84;60.50;99821.26;1712949;83;21459;-69
2022/09/24 10:30:32;;;;;;;4.83;2.80;;;;;;;14.93;58.90;99817.63;1714753;82;21077;-69
2022/09/24 10:33:03;;;;;;;3.42;2.47;;;;;;;14.94;58.11;99819.28;1653957;86;21023;-69
2022/09/24 10:35:37;;;;;;;2.45;2.25;;;;;;;14.91;57.32;99817.45;1668884;86;21047;-70
2022/09/24 10:38:18;;;;;;;;;;;;;;;14.85;57.36;99822.92;1679142;83;21187;-70
2022/09/24 10:40:46;;;;;;;2.50;2.30;;;;;;;14.73;56.56;99813.09;1690858;85;21809;-69
2022/09/24 10:43:20;;;;;;;3.08;2.25;;;;;;;14.80;57.06;99808.80;1658464;86;21376;-71
2022/09/24 10:46:14;;;;;;;2.80;2.30;;;;;;;15.07;57.42;99816.17;1697699;83;21016;-70
2022/09/24 10:48:51;;;;;;;2.70;2.50;;;;;;;15.41;55.76;99824.82;1670105;85;21146;-70
2022/09/24 10:52:00;;;;;;;2.58;2.35;;;;;;;15.70;55.93;99813.69;1683356;84;21516;-69
2022/09/24 10:54:41;;;;;;;3.85;2.05;;;;;;;15.96;55.29;99812.16;1678215;84;21870;-70
2022/09/24 10:57:18;;;;;;;2.33;1.92;;;;;;;16.26;55.30;99813.23;1686123;84;21007;-71
2022/09/24 11:00:12;;;;;;;3.65;1.95;;;;;;;16.41;52.79;99804.02;1684827;84;21450;-72
2022/09/24 11:03:23;;;;;;;2.33;1.87;;;;;;;16.38;52.16;99811.02;1687342;84;20989;-71
2022/09/24 11:06:12;;;;;;;2.20;1.70;;;;;;;16.19;51.80;99804.25;1660709;85;21417;-70
2022/09/24 11:08:48;;;;;;;1.95;1.70;;;;;;;16.27;51.17;99807.40;1654502;85;21880;-71
2022/09/24 11:11:38;;;;;;;2.15;1.82;;;;;;;16.29;50.28;99808.05;1609168;86;21092;-70
2022/09/24 11:14:32;;;;;;;2.00;1.80;;;;;;;16.12;50.67;99809.13;1661368;86;21056;-71
2022/09/24 11:17:16;;;;;;;2.10;1.90;;;;;;;15.88;50.69;99808.17;1611561;88;21456;-73
2022/09/24 11:20:13;;;;;;;1.87;1.77;;;;;;;15.61;51.60;99824.52;1611290;88;20988;-70
2022/09/24 11:23:20;;;;;;;5.08;2.12;;;;;;;15.37;52.99;99812.03;1629423;87;21878;-72
2022/09/24 11:26:08;;;;;;;3.17;2.30;;;;;;;15.12;53.38;99821.81;1638490;86;21084;-72
2022/09/24 11:29:18;;;;;;;4.50;2.20;;;;;;;14.90;54.28;99819.29;1664453;85;21021;-70
2022/09/24 11:32:16;;;;;;;3.30;2.30;;;;;;;14.75;54.85;99826.22;1664851;85;21081;-72
2022/09/24 11:35:34;;;;;;;1.87;1.42;;;;;;;14.52;55.84;99833.46;1663140;86;21509;-70
2022/09/24 11:38:11;;;;;;;2.62;1.00;;;;;;;14.12;57.32;99849.18;1660999;85;21846;-71
2022/09/24 11:40:55;;;;;;;1.17;1.07;;;;;;;13.62;57.14;99850.67;1633228;87;21024;-74
2022/09/24 11:43:59;;;;;;;;;;;;;;;13.31;58.34;99866.14;1639514;86;20989;-73
2022/09/24 11:46:51;;;;;;;1.22;1.07;;;;;;;13.06;60.00;99870.35;1644570;86;20411;-70
2022/09/24 11:49:41;;;;;;;1.55;0.90;;;;;;;12.75;60.65;99861.06;1646676;86;21533;-71
2022/09/24 11:52:16;;;;;;;1.32;0.85;;;;;;;12.50;60.43;99859.44;1656411;86;21961;-70
2022/09/24 11:55:04;;;;;;;0.80;0.80;;;;;;;12.35;60.39;99853.43;1629636;87;22115;-72
2022/09/24 11:57:45;;;;;;;1.45;0.80;;;;;;;12.31;61.20;99859.03;1639597;87;21443;-73
2022/09/24 12:00:16;;;;;;;1.00;0.90;;;;;;;12.27;61.33;99864.77;1639786;87;21439;-71
2022/09/24 12:03:06;;;;;;;1.17;0.80;;;;;;;12.27;61.63;99872.72;1649822;85;22488;-71
2022/09/24 12:06:01;;;;;;;0.60;0.60;;;;;;;12.26;62.12;99856.00;1667229;85;22510;-71
2022/09/24 12:08:33;;;;;;;1.15;0.62;;;;;;;12.39;62.37;99858.30;1717324;83;20989;-71
2022/09/24 12:11:10;;;;;;;1.20;0.70;;;;;;;12.46;61.87;99851.45;1741279;82;20960;-72
2022/09/24 12:13:41;;;;;;;0.60;0.60;;;;;;;12.47;61.89;99855.77;1671288;84;21235;-70
2022/09/24 12:16:28;;;;;;;1.85;0.70;;;;;;;12.43;62.32;99857.02;1710804;83;20988;-70
2022/09/24 12:18:59;;;;;;;1.00;0.90;;;;;;;12.43;62.77;99857.52;1686158;82;21832;-71